Saint-Anicet, Canada
Current Conditions -  °F | °C
As of 1:53 AM on Saturday 29 Nov 2014 (Local Time) from KMSS Reporting Station
Clear Clear  
Wind Chill:   Ceiling: Unl
Heat Index: 15°   Visibility: 10mi
Dew Point: 11°   Wind: 7mph
Humidity: 84%   Direction: 230°SW
Pressure: 30.23"   Gusts: NA
Location:  45.13°N, 74.35°W
Report Text: KMSS 290653Z AUTO 23006KT 10SM CLR M09/M12 A3023 RMK AO2 SLP244 I1000 T10941117
Loading
Personal Weather Stations






























Interactive Weather Map New forecast layout! Learn more

10-Day Weather Forecast

Advertisements
Track Severe Weather on mobile